Time;durP1;ratioP1;P1;durP2;ratioP2;P2;SDS_P1;SDS_P2;PMS_P1;PMS_P2;Temp;Humidity;BMP_temperature;BMP_pressure;BME280_temperature;BME280_humidity;BME280_pressure;Samples;Min_cycle;Max_cycle;Signal;HPM_P1;HPM_P2
2022/01/14 00:00:58;;;;;;;41.00;14.88;;;6.70;94.40;;;;;;5001600;28;20033;-49
2022/01/14 00:03:24;;;;;;;33.35;12.48;;;6.70;94.50;;;;;;5000213;28;20120;-49
2022/01/14 00:05:50;;;;;;;46.15;16.90;;;6.70;94.50;;;;;;5009170;28;20515;-49
2022/01/14 00:08:15;;;;;;;48.00;17.17;;;6.70;94.50;;;;;;5002899;28;20317;-49
2022/01/14 00:10:48;;;;;;;37.30;15.75;;;6.70;94.50;;;;;;5004280;28;20030;-49
2022/01/14 00:13:37;;;;;;;33.63;11.40;;;6.70;94.40;;;;;;5002353;28;20031;-49
2022/01/14 00:15:59;;;;;;;36.45;13.25;;;6.70;94.50;;;;;;5006289;28;20484;-49
2022/01/14 00:18:24;;;;;;;41.58;15.80;;;6.70;94.40;;;;;;5002186;28;20022;-49
2022/01/14 00:20:50;;;;;;;41.75;16.00;;;6.70;94.50;;;;;;5005312;28;20511;-49
2022/01/14 00:23:17;;;;;;;41.92;15.50;;;6.70;94.50;;;;;;5002718;28;20030;-49
2022/01/14 00:33:55;;;;;;;37.97;14.82;;;6.70;94.40;;;;;;5005818;28;20064;-49
2022/01/14 00:36:21;;;;;;;43.03;15.13;;;6.70;94.40;;;;;;5004315;28;20070;-49
2022/01/14 00:38:46;;;;;;;43.72;14.60;;;6.70;94.40;;;;;;5003469;28;20060;-49
2022/01/14 00:41:13;;;;;;;54.67;18.98;;;6.70;94.40;;;;;;5004416;28;20033;-49
2022/01/14 00:43:41;;;;;;;51.83;18.38;;;6.70;94.40;;;;;;5002501;28;20028;-49
2022/01/14 00:46:08;;;;;;;38.45;15.48;;;6.70;94.40;;;;;;5006205;28;20361;-49
2022/01/14 00:48:35;;;;;;;49.00;17.23;;;6.70;94.40;;;;;;5002379;28;20025;-49
2022/01/14 00:51:00;;;;;;;46.83;15.88;;;6.70;94.40;;;;;;5003811;28;20034;-49
2022/01/14 00:53:26;;;;;;;38.08;15.00;;;6.70;94.40;;;;;;5000725;28;20438;-49
2022/01/14 00:56:05;;;;;;;38.05;13.93;;;6.70;94.40;;;;;;5005138;28;20033;-49
2022/01/14 01:01:15;;;;;;;49.00;17.17;;;6.70;94.40;;;;;;5004599;28;20404;-48
2022/01/14 01:03:41;;;;;;;47.75;16.60;;;6.70;94.40;;;;;;5003536;28;20566;-49
2022/01/14 01:06:07;;;;;;;47.50;15.80;;;6.70;94.40;;;;;;5004199;28;20113;-48
2022/01/14 01:08:34;;;;;;;51.00;17.25;;;6.70;94.40;;;;;;5001637;28;20038;-49
2022/01/14 01:11:03;;;;;;;34.13;14.38;;;6.70;94.40;;;;;;5002570;28;20101;-48
2022/01/14 01:13:33;;;;;;;39.42;14.20;;;6.70;94.40;;;;;;5003610;28;20040;-48
2022/01/14 01:15:59;;;;;;;50.53;17.00;;;6.70;94.40;;;;;;5002196;28;20034;-49
2022/01/14 01:18:25;;;;;;;38.58;15.27;;;6.70;94.40;;;;;;4999312;28;20335;-49
2022/01/14 01:20:52;;;;;;;48.28;15.88;;;6.70;94.40;;;;;;5004097;28;20030;-49
2022/01/14 01:23:18;;;;;;;43.35;16.25;;;6.70;94.40;;;;;;5002201;28;20109;-49
2022/01/14 01:25:49;;;;;;;38.25;15.85;;;6.70;94.40;;;;;;5001631;28;20117;-49
2022/01/14 01:28:15;;;;;;;51.17;17.00;;;6.70;94.40;;;;;;5005919;28;20084;-49
2022/01/14 01:31:05;;;;;;;56.10;15.73;;;6.70;94.40;;;;;;5004493;28;20025;-49
2022/01/14 01:33:32;;;;;;;45.05;16.17;;;6.70;94.40;;;;;;5001485;28;20034;-49
2022/01/14 01:35:58;;;;;;;38.40;15.68;;;6.70;94.40;;;;;;5002063;28;20213;-49
2022/01/14 01:38:24;;;;;;;39.42;13.60;;;6.70;94.70;;;;;;5002050;28;20022;-49
2022/01/14 01:40:49;;;;;;;46.97;16.10;;;6.70;94.40;;;;;;5000207;28;20030;-49
2022/01/14 01:43:16;;;;;;;42.70;14.48;;;6.70;94.30;;;;;;5001013;28;20026;-49
2022/01/14 01:45:47;;;;;;;38.58;14.30;;;6.70;94.30;;;;;;5001542;28;20022;-49
2022/01/14 01:48:12;;;;;;;;;;;6.70;94.40;;;;;;5005411;28;20029;-49
2022/01/14 01:50:38;;;;;;;41.13;14.38;;;6.70;94.30;;;;;;5001551;28;19940;-49
2022/01/14 01:53:05;;;;;;;40.92;14.05;;;6.70;94.30;;;;;;5002355;28;20449;-49
2022/01/14 01:55:32;;;;;;;45.65;14.15;;;6.70;94.30;;;;;;5000646;28;20089;-48
2022/01/14 01:57:57;;;;;;;50.75;16.45;;;6.70;94.30;;;;;;5001397;28;20106;-49
2022/01/14 02:00:26;;;;;;;40.47;14.55;;;6.70;94.30;;;;;;5005566;28;20079;-49
2022/01/14 02:02:54;;;;;;;45.47;15.55;;;6.70;94.30;;;;;;5001194;28;20124;-49
2022/01/14 02:05:22;;;;;;;51.83;15.98;;;6.70;94.30;;;;;;5002503;28;20022;-49
2022/01/14 02:07:47;;;;;;;50.38;15.57;;;6.70;94.30;;;;;;5003115;28;20396;-49
2022/01/14 02:10:13;;;;;;;45.10;15.75;;;6.70;94.30;;;;;;5001218;28;20030;-49
2022/01/14 02:12:48;;;;;;;44.92;15.02;;;6.70;94.20;;;;;;5000545;28;20548;-49
2022/01/14 02:15:28;;;;;;;44.97;14.48;;;6.70;94.30;;;;;;5001768;28;20089;-49
2022/01/14 02:23:25;;;;;;;55.08;16.42;;;6.70;94.30;;;;;;5000745;28;20045;-49
2022/01/14 02:25:50;;;;;;;38.38;16.25;;;6.60;94.60;;;;;;5001193;28;20357;-49
2022/01/14 02:28:18;;;;;;;44.17;14.65;;;6.70;94.30;;;;;;5006455;28;20037;-49
2022/01/14 02:30:47;;;;;;;46.03;16.10;;;6.70;94.20;;;;;;5001183;28;20022;-49
2022/01/14 02:33:13;;;;;;;44.67;15.32;;;6.70;94.20;;;;;;5000392;28;20056;-49
2022/01/14 02:35:44;;;;;;;38.13;14.63;;;6.70;94.20;;;;;;5001896;28;20598;-49
2022/01/14 02:38:11;;;;;;;34.50;13.68;;;6.60;94.20;;;;;;4999308;28;20034;-49
2022/01/14 02:40:38;;;;;;;38.67;12.60;;;6.70;94.20;;;;;;5004180;28;20377;-49
2022/01/14 02:43:06;;;;;;;34.65;13.40;;;6.70;94.30;;;;;;4999969;28;20023;-49
2022/01/14 02:45:34;;;;;;;37.42;13.07;;;6.60;94.20;;;;;;5002633;28;20037;-49
2022/01/14 02:48:01;;;;;;;41.15;14.10;;;6.60;94.20;;;;;;5003240;28;20132;-49
2022/01/14 02:50:38;;;;;;;42.20;14.20;;;6.60;94.20;;;;;;5003444;28;20021;-49
2022/01/14 02:53:13;;;;;;;47.00;14.50;;;6.60;94.20;;;;;;5001719;28;20026;-49
2022/01/14 02:55:43;;;;;;;40.50;12.07;;;6.60;94.20;;;;;;5001381;28;20030;-49
2022/01/14 02:58:10;;;;;;;42.45;14.20;;;6.60;94.10;;;;;;4999199;28;20502;-49
2022/01/14 03:00:36;;;;;;;37.28;14.77;;;6.60;94.10;;;;;;5002089;28;20041;-49
2022/01/14 03:03:04;;;;;;;43.90;15.50;;;6.60;94.20;;;;;;5001072;28;20358;-49
2022/01/14 03:05:30;;;;;;;50.05;16.40;;;6.60;94.10;;;;;;5000632;28;20037;-49
2022/01/14 03:07:57;;;;;;;40.58;15.23;;;6.60;94.10;;;;;;5004508;28;20116;-49
2022/01/14 03:10:23;;;;;;;32.55;13.73;;;6.60;94.10;;;;;;4999748;28;20030;-49
2022/01/14 03:12:48;;;;;;;33.70;12.40;;;6.60;94.10;;;;;;5000925;28;20088;-49
2022/01/14 03:15:16;;;;;;;28.63;10.50;;;6.60;94.10;;;;;;5001808;28;20037;-49
2022/01/14 03:17:42;;;;;;;30.55;10.32;;;6.60;94.10;;;;;;4999610;28;20076;-49
2022/01/14 03:20:24;;;;;;;27.38;9.88;;;6.60;94.10;;;;;;5002486;28;20234;-49
2022/01/14 03:23:03;;;;;;;19.90;7.90;;;6.60;94.10;;;;;;5001894;28;20456;-49
2022/01/14 03:25:48;;;;;;;21.70;8.32;;;6.60;94.10;;;;;;4998760;28;20065;-49
2022/01/14 03:28:16;;;;;;;18.48;7.75;;;6.60;94.10;;;;;;5001420;28;20420;-49
2022/01/14 03:30:42;;;;;;;19.65;7.45;;;6.60;94.10;;;;;;5003252;28;20080;-49
2022/01/14 03:33:08;;;;;;;16.75;6.70;;;6.60;94.10;;;;;;4999160;28;20038;-49
2022/01/14 03:35:34;;;;;;;24.20;7.82;;;6.60;94.10;;;;;;5000779;28;20364;-48
2022/01/14 03:37:59;;;;;;;16.58;6.95;;;6.60;94.00;;;;;;5002037;28;20215;-49
2022/01/14 03:40:26;;;;;;;20.05;7.85;;;6.60;94.10;;;;;;5000773;28;20037;-49
2022/01/14 03:42:52;;;;;;;17.55;7.30;;;6.60;94.00;;;;;;5004847;28;20352;-49
2022/01/14 03:45:17;;;;;;;18.23;6.22;;;6.50;94.00;;;;;;5003722;28;20121;-49
2022/01/14 03:47:43;;;;;;;19.05;7.25;;;6.60;94.00;;;;;;5004966;28;20052;-49
2022/01/14 03:50:09;;;;;;;16.85;7.07;;;6.60;94.00;;;;;;5005887;28;20058;-49
2022/01/14 03:52:35;;;;;;;18.27;7.53;;;6.60;94.00;;;;;;5005296;28;20029;-49
2022/01/14 03:55:00;;;;;;;21.63;7.82;;;6.50;93.90;;;;;;5004395;28;20034;-49
2022/01/14 03:57:26;;;;;;;17.67;7.75;;;6.50;93.90;;;;;;5003452;28;20064;-48
2022/01/14 03:59:51;;;;;;;20.77;7.72;;;6.60;94.00;;;;;;5005801;28;20027;-49
2022/01/14 04:02:17;;;;;;;24.92;7.90;;;6.60;93.90;;;;;;5002535;28;20057;-48
2022/01/14 04:04:43;;;;;;;28.73;9.60;;;6.50;93.90;;;;;;5003628;28;20022;-49
2022/01/14 04:07:08;;;;;;;23.92;8.88;;;6.50;93.90;;;;;;5005830;28;20383;-49
2022/01/14 04:09:36;;;;;;;24.10;8.98;;;6.50;93.90;;;;;;5003842;28;20041;-49
2022/01/14 04:12:04;;;;;;;22.90;9.38;;;6.60;93.90;;;;;;5005903;28;20356;-48
2022/01/14 04:16:57;;;;;;;27.38;9.75;;;6.60;93.90;;;;;;5005751;28;20077;-49
2022/01/14 04:19:27;;;;;;;27.13;10.73;;;6.50;93.80;;;;;;5003095;28;20046;-49
2022/01/14 04:21:53;;;;;;;25.77;9.55;;;6.50;93.90;;;;;;5000718;28;20053;-49
2022/01/14 04:24:18;;;;;;;24.05;10.38;;;6.50;93.90;;;;;;5002659;28;20061;-49
2022/01/14 04:26:44;;;;;;;23.55;10.10;;;6.50;93.90;;;;;;5004127;28;20026;-48
2022/01/14 04:29:09;;;;;;;29.17;11.88;;;6.50;93.90;;;;;;5005028;28;20024;-49
2022/01/14 04:31:35;;;;;;;29.85;10.93;;;6.50;93.80;;;;;;5001635;28;20893;-49
2022/01/14 04:34:01;;;;;;;25.58;9.50;;;6.50;93.90;;;;;;5004297;28;20029;-49
2022/01/14 04:36:26;;;;;;;38.25;11.00;;;6.50;93.80;;;;;;5004783;28;20058;-49
2022/01/14 04:38:52;;;;;;;28.20;11.93;;;6.50;93.90;;;;;;5003467;28;20356;-49
2022/01/14 04:41:17;;;;;;;36.80;12.00;;;6.50;93.80;;;;;;5007236;28;20083;-48
2022/01/14 04:43:43;;;;;;;33.13;12.13;;;6.50;93.80;;;;;;5002718;28;20050;-49
2022/01/14 04:48:36;;;;;;;34.83;11.93;;;6.50;93.80;;;;;;5004054;28;20022;-49
2022/01/14 04:51:04;;;;;;;26.42;11.23;;;6.50;93.80;;;;;;5001276;28;20042;-49
2022/01/14 04:53:30;;;;;;;32.38;11.30;;;6.50;94.10;;;;;;5003300;28;20401;-48
2022/01/14 04:55:56;;;;;;;36.75;12.18;;;6.50;93.80;;;;;;5001832;28;20461;-49
2022/01/14 04:58:23;;;;;;;33.70;13.15;;;6.50;93.80;;;;;;5002855;28;20039;-48
2022/01/14 05:00:49;;;;;;;29.83;10.95;;;6.40;93.80;;;;;;5003355;28;20049;-49
2022/01/14 05:03:15;;;;;;;24.40;10.13;;;6.50;93.90;;;;;;5005411;28;20061;-48
2022/01/14 05:05:44;;;;;;;31.63;11.07;;;6.50;93.80;;;;;;5002590;28;20026;-49
2022/01/14 05:08:15;;;;;;;34.38;11.23;;;6.50;93.90;;;;;;5002093;28;20397;-49
2022/01/14 05:13:19;;;;;;;31.98;10.82;;;6.40;93.80;;;;;;4999723;28;20034;-49
2022/01/14 05:15:45;;;;;;;27.17;10.60;;;6.50;93.80;;;;;;5001503;28;20030;-49
2022/01/14 05:18:11;;;;;;;34.45;11.10;;;6.50;93.70;;;;;;5002000;28;20113;-49
2022/01/14 05:20:36;;;;;;;33.90;12.65;;;6.50;93.80;;;;;;5004169;28;20141;-49
2022/01/14 05:23:02;;;;;;;28.55;11.10;;;6.40;93.70;;;;;;5006194;28;20548;-49
2022/01/14 05:25:28;;;;;;;31.33;11.07;;;6.40;93.80;;;;;;5001125;28;20400;-48
2022/01/14 05:27:54;;;;;;;34.47;11.68;;;6.40;93.80;;;;;;5002528;28;20501;-49
2022/01/14 05:30:20;;;;;;;29.80;9.65;;;6.50;93.80;;;;;;5005602;28;20040;-49
2022/01/14 05:32:51;;;;;;;27.48;9.90;;;6.50;93.80;;;;;;5003221;28;20164;-49
2022/01/14 05:35:22;;;;;;;25.98;10.20;;;6.40;93.70;;;;;;5003400;28;20030;-49
2022/01/14 05:37:49;;;;;;;29.88;8.80;;;6.50;93.80;;;;;;5001778;28;20065;-49
2022/01/14 05:40:16;;;;;;;19.08;8.63;;;6.40;93.70;;;;;;5002701;28;20033;-49
2022/01/14 05:42:43;;;;;;;14.90;7.00;;;6.40;93.80;;;;;;5000550;28;20365;-49
2022/01/14 05:45:10;;;;;;;22.17;7.95;;;6.40;93.80;;;;;;5002977;28;20021;-49
2022/01/14 05:47:38;;;;;;;20.33;7.38;;;6.40;93.80;;;;;;5003662;28;20037;-48
2022/01/14 05:50:06;;;;;;;18.63;7.93;;;6.40;93.70;;;;;;5001606;28;20034;-49
2022/01/14 05:52:32;;;;;;;17.27;5.82;;;6.40;93.70;;;;;;4997773;28;20030;-49
2022/01/14 05:54:58;;;;;;;15.02;5.13;;;6.40;93.70;;;;;;5001428;28;20496;-48
2022/01/14 05:57:23;;;;;;;13.07;5.70;;;6.40;93.70;;;;;;5002414;28;20533;-49
2022/01/14 05:59:49;;;;;;;13.25;6.40;;;6.40;93.70;;;;;;5003089;28;20113;-49
2022/01/14 06:02:15;;;;;;;16.15;6.35;;;6.40;93.70;;;;;;5006074;28;20033;-49
2022/01/14 06:04:42;;;;;;;13.07;5.38;;;6.40;93.70;;;;;;5002304;28;20062;-49
2022/01/14 06:07:10;;;;;;;10.18;5.43;;;6.40;93.70;;;;;;5001183;28;20026;-49
2022/01/14 06:09:36;;;;;;;10.35;4.57;;;6.40;93.70;;;;;;5005968;28;20032;-49
2022/01/14 06:12:02;;;;;;;9.20;4.18;;;6.40;93.70;;;;;;4997657;28;20491;-49
2022/01/14 06:14:27;;;;;;;14.05;5.93;;;6.40;93.70;;;;;;5000254;28;20039;-49
2022/01/14 06:16:53;;;;;;;10.93;5.13;;;6.40;93.70;;;;;;5000702;28;20038;-49
2022/01/14 06:19:18;;;;;;;15.20;4.90;;;6.40;93.70;;;;;;5007084;28;20022;-48
2022/01/14 06:21:44;;;;;;;12.73;5.65;;;6.40;93.70;;;;;;5009456;28;20065;-49
2022/01/14 06:24:10;;;;;;;12.23;5.97;;;6.40;93.70;;;;;;5008089;28;20033;-48
2022/01/14 06:26:35;;;;;;;14.75;5.80;;;6.40;93.60;;;;;;5007796;28;20346;-48
2022/01/14 06:29:01;;;;;;;14.77;6.90;;;6.40;93.60;;;;;;5008452;28;20022;-49
2022/01/14 06:31:26;;;;;;;14.88;5.72;;;6.40;93.60;;;;;;5009797;28;20060;-48
2022/01/14 06:33:52;;;;;;;13.63;6.88;;;6.40;93.70;;;;;;5008886;28;20064;-48
2022/01/14 06:36:17;;;;;;;15.73;6.80;;;6.40;93.50;;;;;;5010257;28;20045;-48
2022/01/14 06:38:43;;;;;;;21.08;7.00;;;6.40;93.40;;;;;;5009257;28;20476;-47
2022/01/14 06:41:09;;;;;;;16.75;6.88;;;6.40;93.00;;;;;;5008667;28;20037;-48
2022/01/14 06:43:34;;;;;;;17.65;6.88;;;6.40;92.90;;;;;;5009832;28;20122;-48
2022/01/14 06:46:00;;;;;;;17.00;6.88;;;6.40;92.90;;;;;;5009348;28;20446;-48
2022/01/14 06:48:26;;;;;;;15.25;5.85;;;6.40;92.90;;;;;;5010349;28;20018;-47
2022/01/14 06:50:52;;;;;;;13.50;5.90;;;6.40;92.80;;;;;;5008899;28;20052;-47
2022/01/14 06:53:17;;;;;;;18.33;6.78;;;6.40;92.90;;;;;;5009302;28;20092;-48
2022/01/14 06:55:43;;;;;;;18.85;6.85;;;6.40;92.90;;;;;;5004800;28;20485;-48
2022/01/14 06:58:09;;;;;;;13.55;6.53;;;6.40;92.90;;;;;;4999779;28;20026;-48
2022/01/14 07:00:34;;;;;;;19.83;7.53;;;6.40;92.90;;;;;;5002351;28;20135;-48
2022/01/14 07:03:03;;;;;;;16.15;7.00;;;6.40;92.90;;;;;;4999650;28;20037;-47
2022/01/14 07:05:29;;;;;;;17.77;6.47;;;6.40;92.90;;;;;;5003985;28;20025;-48
2022/01/14 07:07:54;;;;;;;21.63;7.10;;;6.40;92.90;;;;;;5000292;28;20022;-47
2022/01/14 07:10:20;;;;;;;17.75;7.55;;;6.40;93.00;;;;;;5001534;28;20455;-48
2022/01/14 07:12:46;;;;;;;23.20;7.57;;;6.40;93.00;;;;;;5001365;28;20105;-48
2022/01/14 07:15:13;;;;;;;16.63;6.72;;;6.40;93.00;;;;;;5001780;28;20024;-48
2022/01/14 07:17:40;;;;;;;21.08;7.32;;;6.40;93.00;;;;;;4999668;28;20119;-48
2022/01/14 07:20:11;;;;;;;25.27;8.05;;;6.40;93.00;;;;;;4998692;28;20021;-48
2022/01/14 07:22:38;;;;;;;19.17;7.13;;;6.40;93.00;;;;;;5006982;28;20045;-48
2022/01/14 07:25:04;;;;;;;19.10;7.57;;;6.40;93.00;;;;;;5010763;28;20455;-48
2022/01/14 07:27:29;;;;;;;21.02;7.60;;;6.40;93.00;;;;;;5002965;28;20022;-47
2022/01/14 07:29:55;;;;;;;20.77;7.03;;;6.50;93.00;;;;;;5009876;28;20603;-47
2022/01/14 07:32:21;;;;;;;21.45;8.30;;;6.50;93.00;;;;;;5009522;28;20033;-48
2022/01/14 07:34:47;;;;;;;21.33;8.40;;;6.50;93.10;;;;;;5010327;28;20030;-48
2022/01/14 07:37:14;;;;;;;11.40;6.53;;;6.40;93.00;;;;;;5009166;28;20038;-48
2022/01/14 07:39:39;;;;;;;16.00;6.53;;;6.40;93.00;;;;;;5010133;28;20268;-47
2022/01/14 07:42:06;;;;;;;15.85;6.72;;;6.40;93.10;;;;;;5006021;28;20037;-47
2022/01/14 07:44:31;;;;;;;22.75;8.20;;;6.40;93.10;;;;;;5009304;28;20441;-48
2022/01/14 07:46:57;;;;;;;20.63;7.20;;;6.40;93.20;;;;;;5010042;28;20038;-48
2022/01/14 07:49:23;;;;;;;17.25;6.15;;;6.40;93.20;;;;;;5009999;28;20112;-48
2022/01/14 07:51:48;;;;;;;14.23;6.07;;;6.40;93.20;;;;;;5008598;28;20034;-47
2022/01/14 07:54:14;;;;;;;13.85;5.93;;;6.40;93.20;;;;;;5009809;28;20049;-47
2022/01/14 07:56:45;;;;;;;10.00;5.13;;;6.40;93.20;;;;;;5007764;28;20044;-48
2022/01/14 07:59:13;;;;;;;14.98;5.50;;;6.40;93.30;;;;;;5010191;28;20452;-48
2022/01/14 08:01:40;;;;;;;13.48;5.38;;;6.50;93.30;;;;;;5007693;28;20088;-48
2022/01/14 08:04:06;;;;;;;12.70;5.60;;;6.40;93.20;;;;;;5001070;28;20022;-48
2022/01/14 08:06:34;;;;;;;17.15;5.55;;;6.40;93.30;;;;;;4998460;28;20330;-48
2022/01/14 08:09:00;;;;;;;15.55;6.75;;;6.40;93.20;;;;;;5001736;28;20018;-48
2022/01/14 08:11:26;;;;;;;13.93;4.70;;;6.40;93.30;;;;;;4999183;28;20032;-48
2022/01/14 08:13:52;;;;;;;16.63;6.43;;;6.40;93.30;;;;;;4996463;28;20093;-47
2022/01/14 08:16:17;;;;;;;14.20;4.95;;;6.50;93.30;;;;;;5001700;28;20501;-48
2022/01/14 08:18:43;;;;;;;13.15;5.50;;;6.40;93.30;;;;;;4999515;28;20026;-48
2022/01/14 08:21:09;;;;;;;9.02;4.40;;;6.50;93.60;;;;;;5002256;28;20037;-48
2022/01/14 08:23:34;;;;;;;9.73;4.45;;;6.50;93.30;;;;;;4997892;28;20334;-48
2022/01/14 08:26:00;;;;;;;8.55;3.60;;;6.50;93.30;;;;;;4999449;28;20038;-48
2022/01/14 08:28:27;;;;;;;9.32;3.63;;;6.60;93.30;;;;;;5004526;28;20030;-48
2022/01/14 08:30:53;;;;;;;8.30;3.88;;;6.60;93.20;;;;;;5002770;28;20042;-48
2022/01/14 08:33:19;;;;;;;15.60;3.97;;;6.60;93.20;;;;;;5007392;28;20097;-47
2022/01/14 08:35:45;;;;;;;10.07;4.18;;;6.60;93.20;;;;;;4999207;28;20145;-48
2022/01/14 08:38:11;;;;;;;5.95;3.25;;;6.60;93.40;;;;;;5005104;28;20059;-48
2022/01/14 08:40:37;;;;;;;8.50;3.20;;;6.50;93.50;;;;;;5004231;28;20065;-48
2022/01/14 08:43:04;;;;;;;6.60;3.33;;;6.50;93.60;;;;;;5001291;28;20027;-48
2022/01/14 08:45:29;;;;;;;9.95;3.92;;;6.50;93.60;;;;;;5003103;28;20109;-48
2022/01/14 08:47:56;;;;;;;9.80;3.45;;;6.40;93.60;;;;;;5003186;28;20106;-48
2022/01/14 08:50:24;;;;;;;8.73;4.15;;;6.50;93.70;;;;;;5004966;28;20026;-48
2022/01/14 08:52:50;;;;;;;6.35;2.83;;;6.50;93.90;;;;;;5003283;28;20153;-48
2022/01/14 08:55:17;;;;;;;5.32;2.80;;;6.50;93.80;;;;;;5004547;28;20026;-48
2022/01/14 08:57:43;;;;;;;6.57;3.53;;;6.60;94.00;;;;;;5000757;28;20919;-48
2022/01/14 09:00:10;;;;;;;14.52;3.80;;;6.60;94.30;;;;;;5004976;28;20105;-48
2022/01/14 09:02:35;;;;;;;14.90;3.60;;;6.60;94.70;;;;;;5010830;28;20030;-48
2022/01/14 09:05:02;;;;;;;12.90;3.83;;;6.60;94.60;;;;;;5011067;28;20015;-48
2022/01/14 09:07:28;;;;;;;11.35;4.03;;;6.60;94.70;;;;;;5008801;28;20489;-48
2022/01/14 09:09:54;;;;;;;5.60;3.45;;;6.60;94.80;;;;;;5011571;28;20022;-48
2022/01/14 09:12:20;;;;;;;6.28;3.60;;;6.60;94.70;;;;;;5007627;28;20029;-48
2022/01/14 09:14:46;;;;;;;10.77;4.00;;;6.70;94.80;;;;;;5002855;28;20019;-48
2022/01/14 09:17:12;;;;;;;14.40;4.88;;;6.70;94.90;;;;;;5002215;28;20042;-48
2022/01/14 09:19:42;;;;;;;33.13;4.80;;;6.70;94.80;;;;;;5005989;28;20027;-48
2022/01/14 09:22:08;;;;;;;11.80;4.65;;;6.70;94.80;;;;;;5005648;28;20032;-48
2022/01/14 09:24:34;;;;;;;11.77;4.20;;;6.70;94.90;;;;;;5005882;28;20093;-48
2022/01/14 09:27:00;;;;;;;9.57;3.45;;;6.70;95.00;;;;;;5005272;28;20026;-48
2022/01/14 09:29:26;;;;;;;10.95;3.63;;;6.80;94.90;;;;;;5004676;28;20024;-48
2022/01/14 09:31:51;;;;;;;8.05;3.55;;;6.80;95.00;;;;;;5006645;28;20036;-48
2022/01/14 09:34:17;;;;;;;9.18;3.53;;;6.80;95.00;;;;;;5006365;28;20044;-48
2022/01/14 09:36:42;;;;;;;15.35;4.57;;;6.90;95.20;;;;;;5004001;28;20116;-48
2022/01/14 09:39:08;;;;;;;13.48;4.93;;;6.90;95.30;;;;;;5002014;28;20431;-48
2022/01/14 09:41:34;;;;;;;11.20;3.10;;;7.00;95.40;;;;;;5002462;28;20037;-48
2022/01/14 09:44:01;;;;;;;14.75;4.10;;;7.00;95.40;;;;;;5004245;28;20045;-48
2022/01/14 09:46:27;;;;;;;10.32;4.47;;;7.00;95.60;;;;;;5005148;28;20037;-48
2022/01/14 09:48:53;;;;;;;10.20;3.97;;;7.10;95.70;;;;;;5006810;28;20026;-48
2022/01/14 09:51:19;;;;;;;6.38;3.15;;;7.10;95.70;;;;;;5003494;28;20066;-48
2022/01/14 09:53:46;;;;;;;11.02;4.70;;;7.20;95.80;;;;;;5003852;28;20449;-48
2022/01/14 09:56:20;;;;;;;9.13;3.95;;;7.20;95.80;;;;;;5003821;28;20057;-48
2022/01/14 09:58:48;;;;;;;8.32;4.07;;;7.30;95.90;;;;;;5005693;28;20025;-48
2022/01/14 10:01:20;;;;;;;8.48;4.03;;;7.40;96.00;;;;;;5010195;28;20097;-48
2022/01/14 10:03:49;;;;;;;9.27;4.00;;;7.30;96.00;;;;;;5011061;28;20030;-48
2022/01/14 10:06:35;;;;;;;12.37;4.70;;;7.30;96.00;;;;;;5010678;28;20029;-48
2022/01/14 10:09:04;;;;;;;7.55;4.20;;;7.40;96.10;;;;;;5010693;28;20566;-48
2022/01/14 10:11:30;;;;;;;14.40;5.10;;;7.40;95.90;;;;;;5009454;28;20038;-48
2022/01/14 10:14:07;;;;;;;14.80;5.18;;;7.40;96.00;;;;;;5004792;28;20083;-48
2022/01/14 10:16:33;;;;;;;9.70;4.38;;;7.40;96.10;;;;;;5009860;28;20427;-48
2022/01/14 10:18:59;;;;;;;16.15;5.75;;;7.40;96.00;;;;;;5007685;28;20117;-48
2022/01/14 10:21:32;;;;;;;11.27;4.97;;;7.40;96.00;;;;;;5002127;28;20025;-48
2022/01/14 10:23:59;;;;;;;9.55;4.53;;;7.40;96.10;;;;;;5006802;28;20049;-48
2022/01/14 10:26:26;;;;;;;20.17;5.93;;;7.40;96.20;;;;;;5006470;28;20355;-48
2022/01/14 10:29:01;;;;;;;19.73;7.10;;;7.50;96.10;;;;;;5007004;28;20086;-48
2022/01/14 10:31:35;;;;;;;15.07;6.35;;;7.50;96.10;;;;;;5001532;28;20062;-48
2022/01/14 10:34:13;;;;;;;13.07;5.20;;;7.50;96.30;;;;;;5008746;28;20060;-49
2022/01/14 10:36:38;;;;;;;14.90;5.15;;;7.60;96.30;;;;;;5003015;28;20491;-48
2022/01/14 10:39:25;;;;;;;22.33;6.32;;;7.70;96.60;;;;;;5006385;28;20061;-48
2022/01/14 10:41:52;;;;;;;21.15;7.90;;;7.70;96.40;;;;;;5006291;28;20595;-48
2022/01/14 10:44:30;;;;;;;14.73;6.30;;;7.60;96.50;;;;;;5008159;28;20022;-48
2022/01/14 10:47:16;;;;;;;7.97;3.60;;;7.60;96.80;;;;;;5010195;28;20408;-48
2022/01/14 10:49:42;;;;;;;7.38;3.95;;;7.60;97.00;;;;;;5008716;28;20092;-48
2022/01/14 10:52:21;;;;;;;18.63;5.93;;;7.60;96.90;;;;;;5008737;28;20218;-48
2022/01/14 10:54:58;;;;;;;22.23;6.82;;;7.60;97.10;;;;;;5010007;28;20026;-48
2022/01/14 10:57:27;;;;;;;16.70;6.32;;;7.70;97.00;;;;;;5005196;28;20334;-48
2022/01/14 10:59:57;;;;;;;10.52;4.07;;;7.70;97.00;;;;;;5001384;28;20396;-48
2022/01/14 11:02:48;;;;;;;11.40;4.75;;;7.80;97.20;;;;;;4999827;28;20030;-48
2022/01/14 11:05:17;;;;;;;3.05;1.50;;;7.80;97.30;;;;;;5005797;28;20030;-48
2022/01/14 11:07:44;;;;;;;20.55;7.00;;;7.90;97.20;;;;;;5003975;28;20113;-48
2022/01/14 11:10:25;;;;;;;10.63;4.63;;;7.90;97.20;;;;;;5003480;28;20021;-48
2022/01/14 11:12:53;;;;;;;12.35;5.72;;;7.90;97.10;;;;;;5001004;28;20072;-48
2022/01/14 11:15:19;;;;;;;14.45;4.93;;;7.90;97.20;;;;;;5010028;28;20026;-48
2022/01/14 11:17:50;;;;;;;7.13;3.65;;;7.90;97.30;;;;;;5008292;28;20492;-48
2022/01/14 11:20:22;;;;;;;15.15;5.05;;;7.90;97.40;;;;;;5003523;28;20029;-48
2022/01/14 11:25:34;;;;;;;16.77;5.20;;;8.00;97.40;;;;;;5003343;28;20037;-48
2022/01/14 11:28:00;;;;;;;12.52;5.82;;;8.00;97.50;;;;;;5002220;28;20484;-49
2022/01/14 11:30:38;;;;;;;9.15;4.88;;;8.00;97.40;;;;;;5001959;28;20022;-48
2022/01/14 11:33:05;;;;;;;8.50;3.85;;;8.10;97.50;;;;;;5007175;28;20503;-48
2022/01/14 11:35:32;;;;;;;11.85;3.80;;;8.10;97.70;;;;;;5008003;28;20021;-48
2022/01/14 11:37:59;;;;;;;9.88;4.00;;;8.00;97.60;;;;;;5003769;28;20049;-48
2022/01/14 11:40:25;;;;;;;13.07;5.30;;;8.10;97.40;;;;;;5006795;28;20034;-48
2022/01/14 11:42:59;;;;;;;9.00;4.50;;;8.00;97.80;;;;;;5004733;28;20026;-48
2022/01/14 11:45:46;;;;;;;13.25;6.07;;;8.00;97.90;;;;;;5001850;28;20058;-48
2022/01/14 11:48:32;;;;;;;14.98;6.55;;;8.10;97.60;;;;;;5001046;28;20136;-48
2022/01/14 11:51:03;;;;;;;15.80;7.28;;;8.00;97.80;;;;;;5001062;28;20114;-48
2022/01/14 11:53:40;;;;;;;14.98;6.28;;;7.90;97.90;;;;;;5004328;28;20053;-48
2022/01/14 11:56:27;;;;;;;10.30;5.18;;;8.00;97.80;;;;;;5007076;28;20118;-48
2022/01/14 11:58:53;;;;;;;12.25;4.40;;;8.00;97.90;;;;;;4999184;28;20493;-48
2022/01/14 12:01:34;;;;;;;16.92;6.55;;;8.00;98.10;;;;;;5006606;28;20137;-48
2022/01/14 12:04:01;;;;;;;21.88;6.47;;;8.00;98.00;;;;;;5009030;28;20027;-48
2022/01/14 12:06:49;;;;;;;13.35;5.68;;;8.00;98.20;;;;;;5012120;28;20030;-49
2022/01/14 12:09:19;;;;;;;10.18;4.47;;;8.00;98.00;;;;;;5010447;28;20025;-48
2022/01/14 12:11:45;;;;;;;9.48;5.43;;;7.90;98.30;;;;;;5005319;28;20018;-48
2022/01/14 12:14:12;;;;;;;15.57;5.55;;;8.00;98.30;;;;;;5007887;28;20077;-48
2022/01/14 12:19:07;;;;;;;12.57;4.70;;;8.00;98.40;;;;;;5007242;28;20430;-48
2022/01/14 12:21:48;;;;;;;17.15;7.72;;;8.00;98.50;;;;;;5007710;28;20038;-48
2022/01/14 12:24:27;;;;;;;20.92;8.23;;;8.00;98.60;;;;;;5009357;28;20025;-48
2022/01/14 12:26:55;;;;;;;16.55;7.65;;;8.10;98.50;;;;;;5006297;28;20262;-48
2022/01/14 12:29:31;;;;;;;10.50;5.00;;;8.10;98.80;;;;;;5008839;28;20030;-48
2022/01/14 12:32:10;;;;;;;14.13;6.80;;;8.10;98.70;;;;;;5008590;28;20445;-49
2022/01/14 12:34:48;;;;;;;14.40;6.07;;;8.20;98.60;;;;;;5009812;28;20122;-48
2022/01/14 12:37:32;;;;;;;7.35;3.20;;;8.20;98.70;;;;;;5012008;28;20398;-48
2022/01/14 12:40:05;;;;;;;14.45;5.57;;;8.20;98.40;;;;;;5003097;28;20032;-48
2022/01/14 12:42:30;;;;;;;13.23;6.25;;;8.30;98.40;;;;;;5006688;28;20021;-48
2022/01/14 12:44:58;;;;;;;10.40;4.18;;;8.20;98.60;;;;;;5005656;28;20165;-48
2022/01/14 12:47:26;;;;;;;13.20;4.72;;;8.20;98.90;;;;;;5004876;28;20507;-48
2022/01/14 12:49:53;;;;;;;12.55;6.28;;;8.20;98.70;;;;;;5004886;28;20014;-48
2022/01/14 12:52:40;;;;;;;12.68;4.82;;;8.20;98.80;;;;;;5005549;28;20512;-48
2022/01/14 12:55:08;;;;;;;12.43;4.72;;;8.20;98.70;;;;;;5005986;28;20060;-48
2022/01/14 12:57:34;;;;;;;13.15;5.00;;;8.20;98.80;;;;;;5004178;28;20201;-48
2022/01/14 13:00:00;;;;;;;15.60;4.72;;;8.20;98.90;;;;;;5001283;28;20057;-48
2022/01/14 13:02:29;;;;;;;19.77;6.35;;;8.20;98.70;;;;;;5006555;28;20234;-48
2022/01/14 13:05:02;;;;;;;11.98;5.65;;;8.20;98.70;;;;;;5001522;28;20120;-48
2022/01/14 13:07:28;;;;;;;15.93;6.07;;;8.20;98.70;;;;;;5001563;28;20543;-48
2022/01/14 13:09:54;;;;;;;13.23;5.63;;;8.20;98.60;;;;;;5006105;28;20400;-48
2022/01/14 13:12:23;;;;;;;11.88;5.57;;;8.30;98.60;;;;;;5007773;28;20362;-48
2022/01/14 13:14:54;;;;;;;12.65;4.68;;;8.20;98.50;;;;;;5001229;28;20124;-48
2022/01/14 13:17:25;;;;;;;15.43;6.22;;;8.30;98.50;;;;;;5008295;28;20492;-48
2022/01/14 13:19:56;;;;;;;13.55;5.25;;;8.30;98.40;;;;;;5005862;28;20027;-48